sensor_id;sensor_type;location;lat;lon;timestamp;P1;durP1;ratioP1;P2;durP2;ratioP2
11488;SDS011;5801;50.804;12.638;2023-11-19T00:00:47;0.95;;;0.93;;
11488;SDS011;5801;50.804;12.638;2023-11-19T00:03:13;2.78;;;0.98;;
11488;SDS011;5801;50.804;12.638;2023-11-19T00:05:39;0.70;;;0.70;;
11488;SDS011;5801;50.804;12.638;2023-11-19T00:08:06;0.82;;;0.82;;
11488;SDS011;5801;50.804;12.638;2023-11-19T00:10:33;0.73;;;0.73;;
11488;SDS011;5801;50.804;12.638;2023-11-19T00:12:59;0.68;;;0.68;;
11488;SDS011;5801;50.804;12.638;2023-11-19T00:15:27;0.88;;;0.88;;
11488;SDS011;5801;50.804;12.638;2023-11-19T00:17:53;0.50;;;0.50;;
11488;SDS011;5801;50.804;12.638;2023-11-19T00:20:20;0.50;;;0.50;;
11488;SDS011;5801;50.804;12.638;2023-11-19T00:22:49;0.57;;;0.57;;
11488;SDS011;5801;50.804;12.638;2023-11-19T00:25:18;0.50;;;0.50;;
11488;SDS011;5801;50.804;12.638;2023-11-19T00:27:46;0.50;;;0.50;;
11488;SDS011;5801;50.804;12.638;2023-11-19T00:30:12;0.50;;;0.50;;
11488;SDS011;5801;50.804;12.638;2023-11-19T00:32:39;0.70;;;0.60;;
11488;SDS011;5801;50.804;12.638;2023-11-19T00:35:06;0.55;;;0.55;;
11488;SDS011;5801;50.804;12.638;2023-11-19T00:37:33;0.45;;;0.45;;
11488;SDS011;5801;50.804;12.638;2023-11-19T00:39:59;0.50;;;0.50;;
11488;SDS011;5801;50.804;12.638;2023-11-19T00:42:25;0.57;;;0.57;;
11488;SDS011;5801;50.804;12.638;2023-11-19T00:44:51;0.50;;;0.50;;
11488;SDS011;5801;50.804;12.638;2023-11-19T00:47:17;0.40;;;0.40;;
11488;SDS011;5801;50.804;12.638;2023-11-19T00:49:49;0.60;;;0.60;;
11488;SDS011;5801;50.804;12.638;2023-11-19T00:52:16;0.65;;;0.40;;
11488;SDS011;5801;50.804;12.638;2023-11-19T00:54:42;0.40;;;0.40;;
11488;SDS011;5801;50.804;12.638;2023-11-19T00:57:09;0.55;;;0.50;;
11488;SDS011;5801;50.804;12.638;2023-11-19T00:59:35;0.50;;;0.50;;
11488;SDS011;5801;50.804;12.638;2023-11-19T01:02:00;0.32;;;0.32;;
11488;SDS011;5801;50.804;12.638;2023-11-19T01:04:29;0.40;;;0.40;;
11488;SDS011;5801;50.804;12.638;2023-11-19T01:06:58;0.40;;;0.40;;
11488;SDS011;5801;50.804;12.638;2023-11-19T01:09:24;0.50;;;0.50;;
11488;SDS011;5801;50.804;12.638;2023-11-19T01:11:51;0.50;;;0.50;;
11488;SDS011;5801;50.804;12.638;2023-11-19T01:14:18;0.40;;;0.40;;
11488;SDS011;5801;50.804;12.638;2023-11-19T01:16:45;0.40;;;0.40;;
11488;SDS011;5801;50.804;12.638;2023-11-19T01:19:12;0.52;;;0.40;;
11488;SDS011;5801;50.804;12.638;2023-11-19T01:21:38;0.47;;;0.47;;
11488;SDS011;5801;50.804;12.638;2023-11-19T01:24:04;0.50;;;0.50;;
11488;SDS011;5801;50.804;12.638;2023-11-19T01:26:34;0.50;;;0.50;;
11488;SDS011;5801;50.804;12.638;2023-11-19T01:29:00;0.60;;;0.60;;
11488;SDS011;5801;50.804;12.638;2023-11-19T01:31:26;0.50;;;0.50;;
11488;SDS011;5801;50.804;12.638;2023-11-19T01:33:52;0.57;;;0.57;;
11488;SDS011;5801;50.804;12.638;2023-11-19T01:36:18;0.40;;;0.40;;
11488;SDS011;5801;50.804;12.638;2023-11-19T01:38:44;0.50;;;0.50;;
11488;SDS011;5801;50.804;12.638;2023-11-19T01:41:10;0.40;;;0.40;;
11488;SDS011;5801;50.804;12.638;2023-11-19T01:43:36;0.40;;;0.40;;
11488;SDS011;5801;50.804;12.638;2023-11-19T01:46:08;0.40;;;0.40;;
11488;SDS011;5801;50.804;12.638;2023-11-19T01:48:35;0.43;;;0.43;;
11488;SDS011;5801;50.804;12.638;2023-11-19T01:51:04;0.60;;;0.60;;
11488;SDS011;5801;50.804;12.638;2023-11-19T01:53:32;0.60;;;0.60;;
11488;SDS011;5801;50.804;12.638;2023-11-19T01:56:00;0.50;;;0.50;;
11488;SDS011;5801;50.804;12.638;2023-11-19T01:58:27;0.60;;;0.60;;
11488;SDS011;5801;50.804;12.638;2023-11-19T02:00:54;0.40;;;0.40;;
11488;SDS011;5801;50.804;12.638;2023-11-19T02:03:21;0.57;;;0.55;;
11488;SDS011;5801;50.804;12.638;2023-11-19T02:05:48;0.40;;;0.40;;
11488;SDS011;5801;50.804;12.638;2023-11-19T02:08:14;0.50;;;0.50;;
11488;SDS011;5801;50.804;12.638;2023-11-19T02:10:40;0.57;;;0.57;;
11488;SDS011;5801;50.804;12.638;2023-11-19T02:13:06;0.47;;;0.47;;
11488;SDS011;5801;50.804;12.638;2023-11-19T02:15:32;0.50;;;0.50;;
11488;SDS011;5801;50.804;12.638;2023-11-19T02:18:17;0.90;;;0.73;;
11488;SDS011;5801;50.804;12.638;2023-11-19T02:20:52;0.52;;;0.52;;
11488;SDS011;5801;50.804;12.638;2023-11-19T02:23:19;0.52;;;0.52;;
11488;SDS011;5801;50.804;12.638;2023-11-19T02:25:53;0.40;;;0.40;;
11488;SDS011;5801;50.804;12.638;2023-11-19T02:28:27;0.60;;;0.60;;
11488;SDS011;5801;50.804;12.638;2023-11-19T02:30:53;1.55;;;0.75;;
11488;SDS011;5801;50.804;12.638;2023-11-19T02:33:19;0.82;;;0.82;;
11488;SDS011;5801;50.804;12.638;2023-11-19T02:35:45;0.60;;;0.60;;
11488;SDS011;5801;50.804;12.638;2023-11-19T02:38:11;0.65;;;0.65;;
11488;SDS011;5801;50.804;12.638;2023-11-19T02:40:39;1.40;;;0.80;;
11488;SDS011;5801;50.804;12.638;2023-11-19T02:43:05;0.52;;;0.52;;
11488;SDS011;5801;50.804;12.638;2023-11-19T02:45:31;3.13;;;0.50;;
11488;SDS011;5801;50.804;12.638;2023-11-19T02:47:57;0.95;;;0.70;;
11488;SDS011;5801;50.804;12.638;2023-11-19T02:50:26;0.60;;;0.60;;
11488;SDS011;5801;50.804;12.638;2023-11-19T02:52:53;0.50;;;0.50;;
11488;SDS011;5801;50.804;12.638;2023-11-19T02:55:21;0.80;;;0.80;;
11488;SDS011;5801;50.804;12.638;2023-11-19T02:57:48;1.27;;;0.95;;
11488;SDS011;5801;50.804;12.638;2023-11-19T03:00:15;0.70;;;0.70;;
11488;SDS011;5801;50.804;12.638;2023-11-19T03:02:42;0.70;;;0.70;;
11488;SDS011;5801;50.804;12.638;2023-11-19T03:05:18;0.50;;;0.50;;
11488;SDS011;5801;50.804;12.638;2023-11-19T03:07:45;0.52;;;0.52;;
11488;SDS011;5801;50.804;12.638;2023-11-19T03:10:11;0.65;;;0.65;;
11488;SDS011;5801;50.804;12.638;2023-11-19T03:12:39;0.50;;;0.50;;
11488;SDS011;5801;50.804;12.638;2023-11-19T03:15:06;0.60;;;0.60;;
11488;SDS011;5801;50.804;12.638;2023-11-19T03:17:34;0.50;;;0.50;;
11488;SDS011;5801;50.804;12.638;2023-11-19T03:20:07;0.50;;;0.50;;
11488;SDS011;5801;50.804;12.638;2023-11-19T03:22:36;0.40;;;0.40;;
11488;SDS011;5801;50.804;12.638;2023-11-19T03:25:03;0.40;;;0.40;;
11488;SDS011;5801;50.804;12.638;2023-11-19T03:27:29;1.00;;;0.90;;
11488;SDS011;5801;50.804;12.638;2023-11-19T03:29:55;0.70;;;0.60;;
11488;SDS011;5801;50.804;12.638;2023-11-19T03:32:21;0.55;;;0.55;;
11488;SDS011;5801;50.804;12.638;2023-11-19T03:34:48;0.43;;;0.43;;
11488;SDS011;5801;50.804;12.638;2023-11-19T03:37:14;0.50;;;0.50;;
11488;SDS011;5801;50.804;12.638;2023-11-19T03:39:42;0.60;;;0.60;;
11488;SDS011;5801;50.804;12.638;2023-11-19T03:42:08;0.50;;;0.50;;
11488;SDS011;5801;50.804;12.638;2023-11-19T03:44:34;0.50;;;0.50;;
11488;SDS011;5801;50.804;12.638;2023-11-19T03:47:00;0.52;;;0.52;;
11488;SDS011;5801;50.804;12.638;2023-11-19T03:49:26;0.50;;;0.50;;
11488;SDS011;5801;50.804;12.638;2023-11-19T03:51:53;16.88;;;0.82;;
11488;SDS011;5801;50.804;12.638;2023-11-19T03:54:18;0.50;;;0.50;;
11488;SDS011;5801;50.804;12.638;2023-11-19T03:56:45;0.50;;;0.50;;
11488;SDS011;5801;50.804;12.638;2023-11-19T03:59:11;0.50;;;0.50;;
11488;SDS011;5801;50.804;12.638;2023-11-19T04:01:37;0.50;;;0.50;;
11488;SDS011;5801;50.804;12.638;2023-11-19T04:04:03;0.50;;;0.50;;
11488;SDS011;5801;50.804;12.638;2023-11-19T04:06:29;0.40;;;0.40;;
11488;SDS011;5801;50.804;12.638;2023-11-19T04:08:55;0.50;;;0.50;;
11488;SDS011;5801;50.804;12.638;2023-11-19T04:11:21;0.40;;;0.40;;
11488;SDS011;5801;50.804;12.638;2023-11-19T04:13:47;0.50;;;0.50;;
11488;SDS011;5801;50.804;12.638;2023-11-19T04:16:14;0.60;;;0.60;;
11488;SDS011;5801;50.804;12.638;2023-11-19T04:18:40;0.50;;;0.50;;
11488;SDS011;5801;50.804;12.638;2023-11-19T04:21:07;0.40;;;0.40;;
11488;SDS011;5801;50.804;12.638;2023-11-19T04:23:33;0.40;;;0.40;;
11488;SDS011;5801;50.804;12.638;2023-11-19T04:26:01;0.57;;;0.57;;
11488;SDS011;5801;50.804;12.638;2023-11-19T04:28:29;1.30;;;0.52;;
11488;SDS011;5801;50.804;12.638;2023-11-19T04:30:55;2.63;;;0.50;;
11488;SDS011;5801;50.804;12.638;2023-11-19T04:33:21;0.50;;;0.50;;
11488;SDS011;5801;50.804;12.638;2023-11-19T04:35:46;0.50;;;0.50;;
11488;SDS011;5801;50.804;12.638;2023-11-19T04:38:13;0.60;;;0.60;;
11488;SDS011;5801;50.804;12.638;2023-11-19T04:40:39;1.10;;;0.80;;
11488;SDS011;5801;50.804;12.638;2023-11-19T04:43:06;0.50;;;0.50;;
11488;SDS011;5801;50.804;12.638;2023-11-19T04:45:32;0.60;;;0.60;;
11488;SDS011;5801;50.804;12.638;2023-11-19T04:47:59;0.50;;;0.50;;
11488;SDS011;5801;50.804;12.638;2023-11-19T04:50:25;0.40;;;0.40;;
11488;SDS011;5801;50.804;12.638;2023-11-19T04:52:52;3.67;;;0.70;;
11488;SDS011;5801;50.804;12.638;2023-11-19T04:55:18;1.23;;;0.77;;
11488;SDS011;5801;50.804;12.638;2023-11-19T04:57:44;0.70;;;0.70;;
11488;SDS011;5801;50.804;12.638;2023-11-19T05:00:10;0.50;;;0.50;;
11488;SDS011;5801;50.804;12.638;2023-11-19T05:02:37;1.67;;;1.58;;
11488;SDS011;5801;50.804;12.638;2023-11-19T05:05:03;0.57;;;0.57;;
11488;SDS011;5801;50.804;12.638;2023-11-19T05:07:29;0.77;;;0.77;;
11488;SDS011;5801;50.804;12.638;2023-11-19T05:09:55;0.40;;;0.40;;
11488;SDS011;5801;50.804;12.638;2023-11-19T05:12:21;0.50;;;0.50;;
11488;SDS011;5801;50.804;12.638;2023-11-19T05:14:48;1.05;;;1.00;;
11488;SDS011;5801;50.804;12.638;2023-11-19T05:17:16;0.55;;;0.55;;
11488;SDS011;5801;50.804;12.638;2023-11-19T05:19:45;0.65;;;0.65;;
11488;SDS011;5801;50.804;12.638;2023-11-19T05:22:12;0.98;;;0.80;;
11488;SDS011;5801;50.804;12.638;2023-11-19T05:24:38;0.82;;;0.80;;
11488;SDS011;5801;50.804;12.638;2023-11-19T05:27:05;0.80;;;0.80;;
11488;SDS011;5801;50.804;12.638;2023-11-19T05:29:32;0.68;;;0.68;;
11488;SDS011;5801;50.804;12.638;2023-11-19T05:31:58;0.50;;;0.50;;
11488;SDS011;5801;50.804;12.638;2023-11-19T05:34:24;0.55;;;0.55;;
11488;SDS011;5801;50.804;12.638;2023-11-19T05:36:51;0.70;;;0.70;;
11488;SDS011;5801;50.804;12.638;2023-11-19T05:39:17;0.50;;;0.50;;
11488;SDS011;5801;50.804;12.638;2023-11-19T05:41:45;0.70;;;0.70;;
11488;SDS011;5801;50.804;12.638;2023-11-19T05:44:11;0.50;;;0.50;;
11488;SDS011;5801;50.804;12.638;2023-11-19T05:46:36;0.80;;;0.80;;
11488;SDS011;5801;50.804;12.638;2023-11-19T05:49:06;0.90;;;0.80;;
11488;SDS011;5801;50.804;12.638;2023-11-19T05:51:35;0.70;;;0.70;;
11488;SDS011;5801;50.804;12.638;2023-11-19T05:54:08;0.47;;;0.47;;
11488;SDS011;5801;50.804;12.638;2023-11-19T05:56:35;0.70;;;0.70;;
11488;SDS011;5801;50.804;12.638;2023-11-19T05:59:01;0.68;;;0.68;;
11488;SDS011;5801;50.804;12.638;2023-11-19T06:01:39;2.10;;;0.68;;
11488;SDS011;5801;50.804;12.638;2023-11-19T06:04:06;0.50;;;0.50;;
11488;SDS011;5801;50.804;12.638;2023-11-19T06:06:32;0.52;;;0.52;;
11488;SDS011;5801;50.804;12.638;2023-11-19T06:08:59;1.38;;;1.27;;
11488;SDS011;5801;50.804;12.638;2023-11-19T06:11:26;1.20;;;0.60;;
11488;SDS011;5801;50.804;12.638;2023-11-19T06:13:53;0.70;;;0.70;;
11488;SDS011;5801;50.804;12.638;2023-11-19T06:16:19;0.50;;;0.50;;
11488;SDS011;5801;50.804;12.638;2023-11-19T06:18:45;1.23;;;0.75;;
11488;SDS011;5801;50.804;12.638;2023-11-19T06:21:11;1.00;;;0.90;;
11488;SDS011;5801;50.804;12.638;2023-11-19T06:23:37;1.25;;;1.10;;
11488;SDS011;5801;50.804;12.638;2023-11-19T06:26:03;1.52;;;0.82;;
11488;SDS011;5801;50.804;12.638;2023-11-19T06:28:30;1.05;;;0.77;;
11488;SDS011;5801;50.804;12.638;2023-11-19T06:30:56;2.67;;;0.77;;
11488;SDS011;5801;50.804;12.638;2023-11-19T06:33:23;0.88;;;0.70;;
11488;SDS011;5801;50.804;12.638;2023-11-19T06:35:49;0.80;;;0.80;;
11488;SDS011;5801;50.804;12.638;2023-11-19T06:38:15;0.50;;;0.50;;
11488;SDS011;5801;50.804;12.638;2023-11-19T06:40:41;0.80;;;0.80;;
11488;SDS011;5801;50.804;12.638;2023-11-19T06:43:07;1.15;;;1.05;;
11488;SDS011;5801;50.804;12.638;2023-11-19T06:45:34;1.95;;;1.02;;
11488;SDS011;5801;50.804;12.638;2023-11-19T06:48:05;1.92;;;1.30;;
11488;SDS011;5801;50.804;12.638;2023-11-19T06:50:32;1.42;;;1.13;;
11488;SDS011;5801;50.804;12.638;2023-11-19T06:52:58;0.75;;;0.70;;
11488;SDS011;5801;50.804;12.638;2023-11-19T06:55:24;1.10;;;1.00;;
11488;SDS011;5801;50.804;12.638;2023-11-19T06:57:51;2.88;;;1.92;;
11488;SDS011;5801;50.804;12.638;2023-11-19T07:00:16;1.65;;;1.08;;
11488;SDS011;5801;50.804;12.638;2023-11-19T07:02:43;1.85;;;1.27;;
11488;SDS011;5801;50.804;12.638;2023-11-19T07:05:09;1.58;;;1.05;;
11488;SDS011;5801;50.804;12.638;2023-11-19T07:07:37;0.95;;;0.90;;
11488;SDS011;5801;50.804;12.638;2023-11-19T07:10:02;0.85;;;0.80;;
11488;SDS011;5801;50.804;12.638;2023-11-19T07:12:29;0.77;;;0.77;;
11488;SDS011;5801;50.804;12.638;2023-11-19T07:14:56;0.90;;;0.90;;
11488;SDS011;5801;50.804;12.638;2023-11-19T07:17:22;0.50;;;0.50;;
11488;SDS011;5801;50.804;12.638;2023-11-19T07:19:49;0.77;;;0.60;;
11488;SDS011;5801;50.804;12.638;2023-11-19T07:22:16;0.60;;;0.60;;
11488;SDS011;5801;50.804;12.638;2023-11-19T07:24:42;0.70;;;0.70;;
11488;SDS011;5801;50.804;12.638;2023-11-19T07:27:08;1.05;;;0.80;;
11488;SDS011;5801;50.804;12.638;2023-11-19T07:29:34;1.75;;;0.70;;
11488;SDS011;5801;50.804;12.638;2023-11-19T07:32:01;2.47;;;1.08;;
11488;SDS011;5801;50.804;12.638;2023-11-19T07:34:27;0.70;;;0.70;;
11488;SDS011;5801;50.804;12.638;2023-11-19T07:36:54;1.02;;;0.90;;
11488;SDS011;5801;50.804;12.638;2023-11-19T07:39:24;0.70;;;0.70;;
11488;SDS011;5801;50.804;12.638;2023-11-19T07:41:50;4.53;;;0.90;;
11488;SDS011;5801;50.804;12.638;2023-11-19T07:44:16;1.83;;;0.98;;
11488;SDS011;5801;50.804;12.638;2023-11-19T07:46:42;1.10;;;0.80;;
11488;SDS011;5801;50.804;12.638;2023-11-19T07:49:10;1.00;;;0.90;;
11488;SDS011;5801;50.804;12.638;2023-11-19T07:51:36;2.20;;;0.82;;
11488;SDS011;5801;50.804;12.638;2023-11-19T07:54:02;0.52;;;0.52;;
11488;SDS011;5801;50.804;12.638;2023-11-19T07:56:29;3.47;;;1.15;;
11488;SDS011;5801;50.804;12.638;2023-11-19T07:58:55;0.70;;;0.70;;
11488;SDS011;5801;50.804;12.638;2023-11-19T08:01:21;1.10;;;1.00;;
11488;SDS011;5801;50.804;12.638;2023-11-19T08:03:48;3.20;;;0.73;;
11488;SDS011;5801;50.804;12.638;2023-11-19T08:06:14;1.83;;;1.27;;
11488;SDS011;5801;50.804;12.638;2023-11-19T08:08:40;2.95;;;1.45;;
11488;SDS011;5801;50.804;12.638;2023-11-19T08:11:06;0.68;;;0.68;;
11488;SDS011;5801;50.804;12.638;2023-11-19T08:13:32;0.90;;;0.80;;
11488;SDS011;5801;50.804;12.638;2023-11-19T08:15:58;2.22;;;1.00;;
11488;SDS011;5801;50.804;12.638;2023-11-19T08:18:24;1.13;;;0.98;;
11488;SDS011;5801;50.804;12.638;2023-11-19T08:20:49;1.35;;;1.00;;
11488;SDS011;5801;50.804;12.638;2023-11-19T08:23:18;2.45;;;0.82;;
11488;SDS011;5801;50.804;12.638;2023-11-19T08:25:45;1.55;;;1.27;;
11488;SDS011;5801;50.804;12.638;2023-11-19T08:28:11;0.70;;;0.70;;
11488;SDS011;5801;50.804;12.638;2023-11-19T08:30:37;0.95;;;0.80;;
11488;SDS011;5801;50.804;12.638;2023-11-19T08:33:03;1.52;;;1.05;;
11488;SDS011;5801;50.804;12.638;2023-11-19T08:35:30;0.73;;;0.73;;
11488;SDS011;5801;50.804;12.638;2023-11-19T08:37:57;1.10;;;1.00;;
11488;SDS011;5801;50.804;12.638;2023-11-19T08:40:24;1.70;;;1.02;;
11488;SDS011;5801;50.804;12.638;2023-11-19T08:42:51;0.73;;;0.73;;
11488;SDS011;5801;50.804;12.638;2023-11-19T08:45:17;4.32;;;1.38;;
11488;SDS011;5801;50.804;12.638;2023-11-19T08:47:43;2.35;;;1.20;;
11488;SDS011;5801;50.804;12.638;2023-11-19T08:50:10;4.38;;;1.45;;
11488;SDS011;5801;50.804;12.638;2023-11-19T08:52:36;0.88;;;0.88;;
11488;SDS011;5801;50.804;12.638;2023-11-19T08:55:02;0.80;;;0.80;;
11488;SDS011;5801;50.804;12.638;2023-11-19T08:57:30;1.60;;;1.20;;
11488;SDS011;5801;50.804;12.638;2023-11-19T08:59:56;1.27;;;1.00;;
11488;SDS011;5801;50.804;12.638;2023-11-19T09:02:22;1.98;;;0.70;;
11488;SDS011;5801;50.804;12.638;2023-11-19T09:04:48;1.00;;;0.73;;
11488;SDS011;5801;50.804;12.638;2023-11-19T09:07:14;1.20;;;0.80;;
11488;SDS011;5801;50.804;12.638;2023-11-19T09:09:40;0.88;;;0.88;;
11488;SDS011;5801;50.804;12.638;2023-11-19T09:12:06;0.80;;;0.80;;
11488;SDS011;5801;50.804;12.638;2023-11-19T09:14:32;0.77;;;0.73;;
11488;SDS011;5801;50.804;12.638;2023-11-19T09:16:58;1.90;;;0.77;;
11488;SDS011;5801;50.804;12.638;2023-11-19T09:19:24;0.68;;;0.68;;
11488;SDS011;5801;50.804;12.638;2023-11-19T09:21:51;1.00;;;1.00;;
11488;SDS011;5801;50.804;12.638;2023-11-19T09:24:18;1.92;;;0.70;;
11488;SDS011;5801;50.804;12.638;2023-11-19T09:26:44;3.05;;;0.90;;
11488;SDS011;5801;50.804;12.638;2023-11-19T09:29:10;1.73;;;0.90;;
11488;SDS011;5801;50.804;12.638;2023-11-19T09:31:39;0.90;;;0.60;;
11488;SDS011;5801;50.804;12.638;2023-11-19T09:34:05;3.42;;;0.80;;
11488;SDS011;5801;50.804;12.638;2023-11-19T09:36:31;0.68;;;0.68;;
11488;SDS011;5801;50.804;12.638;2023-11-19T09:38:57;0.60;;;0.60;;
11488;SDS011;5801;50.804;12.638;2023-11-19T09:41:25;1.33;;;0.80;;
11488;SDS011;5801;50.804;12.638;2023-11-19T09:43:52;4.15;;;2.40;;
11488;SDS011;5801;50.804;12.638;2023-11-19T09:46:19;0.73;;;0.73;;
11488;SDS011;5801;50.804;12.638;2023-11-19T09:48:45;1.48;;;1.02;;
11488;SDS011;5801;50.804;12.638;2023-11-19T09:51:13;2.08;;;0.93;;
11488;SDS011;5801;50.804;12.638;2023-11-19T09:53:39;0.77;;;0.70;;
11488;SDS011;5801;50.804;12.638;2023-11-19T09:56:05;1.33;;;0.70;;
11488;SDS011;5801;50.804;12.638;2023-11-19T09:58:32;0.73;;;0.73;;
11488;SDS011;5801;50.804;12.638;2023-11-19T10:00:59;1.45;;;0.77;;
11488;SDS011;5801;50.804;12.638;2023-11-19T10:03:27;2.25;;;0.75;;
11488;SDS011;5801;50.804;12.638;2023-11-19T10:05:57;1.40;;;0.90;;
11488;SDS011;5801;50.804;12.638;2023-11-19T10:08:24;0.73;;;0.73;;
11488;SDS011;5801;50.804;12.638;2023-11-19T10:10:50;1.70;;;0.98;;
11488;SDS011;5801;50.804;12.638;2023-11-19T10:13:16;0.98;;;0.85;;
11488;SDS011;5801;50.804;12.638;2023-11-19T10:15:43;0.85;;;0.70;;
11488;SDS011;5801;50.804;12.638;2023-11-19T10:18:09;0.93;;;0.93;;
11488;SDS011;5801;50.804;12.638;2023-11-19T10:20:40;1.30;;;1.20;;
11488;SDS011;5801;50.804;12.638;2023-11-19T10:23:06;1.08;;;0.70;;
11488;SDS011;5801;50.804;12.638;2023-11-19T10:25:33;1.17;;;0.60;;
11488;SDS011;5801;50.804;12.638;2023-11-19T10:27:59;2.20;;;1.45;;
11488;SDS011;5801;50.804;12.638;2023-11-19T10:30:26;1.50;;;1.10;;
11488;SDS011;5801;50.804;12.638;2023-11-19T10:33:02;1.05;;;0.85;;
11488;SDS011;5801;50.804;12.638;2023-11-19T10:35:55;0.85;;;0.60;;
11488;SDS011;5801;50.804;12.638;2023-11-19T10:38:22;1.90;;;1.02;;
11488;SDS011;5801;50.804;12.638;2023-11-19T10:40:49;1.85;;;0.70;;
11488;SDS011;5801;50.804;12.638;2023-11-19T10:43:16;1.02;;;0.90;;
11488;SDS011;5801;50.804;12.638;2023-11-19T10:45:42;5.88;;;1.27;;
11488;SDS011;5801;50.804;12.638;2023-11-19T10:48:08;3.35;;;0.90;;
11488;SDS011;5801;50.804;12.638;2023-11-19T10:50:35;2.00;;;1.00;;
11488;SDS011;5801;50.804;12.638;2023-11-19T10:53:03;3.10;;;1.00;;
11488;SDS011;5801;50.804;12.638;2023-11-19T10:55:30;4.15;;;0.85;;
11488;SDS011;5801;50.804;12.638;2023-11-19T10:58:01;3.38;;;0.90;;
11488;SDS011;5801;50.804;12.638;2023-11-19T11:00:29;3.63;;;0.90;;
11488;SDS011;5801;50.804;12.638;2023-11-19T11:02:59;3.22;;;0.98;;
11488;SDS011;5801;50.804;12.638;2023-11-19T11:05:27;9.18;;;1.35;;
11488;SDS011;5801;50.804;12.638;2023-11-19T11:07:58;10.38;;;1.65;;
11488;SDS011;5801;50.804;12.638;2023-11-19T11:10:26;4.55;;;2.20;;
11488;SDS011;5801;50.804;12.638;2023-11-19T11:12:54;4.55;;;0.93;;
11488;SDS011;5801;50.804;12.638;2023-11-19T11:15:26;6.28;;;1.88;;
11488;SDS011;5801;50.804;12.638;2023-11-19T11:17:54;2.25;;;1.10;;
11488;SDS011;5801;50.804;12.638;2023-11-19T11:20:32;7.03;;;1.70;;
11488;SDS011;5801;50.804;12.638;2023-11-19T11:31:39;6.40;;;1.40;;
11488;SDS011;5801;50.804;12.638;2023-11-19T11:37:12;5.72;;;1.55;;
11488;SDS011;5801;50.804;12.638;2023-11-19T11:40:04;8.10;;;2.00;;
11488;SDS011;5801;50.804;12.638;2023-11-19T11:42:38;8.23;;;1.73;;
11488;SDS011;5801;50.804;12.638;2023-11-19T11:45:07;3.85;;;1.80;;
11488;SDS011;5801;50.804;12.638;2023-11-19T11:50:13;10.27;;;1.88;;
11488;SDS011;5801;50.804;12.638;2023-11-19T11:55:26;3.95;;;1.45;;
11488;SDS011;5801;50.804;12.638;2023-11-19T11:57:53;6.38;;;2.13;;
11488;SDS011;5801;50.804;12.638;2023-11-19T12:00:22;8.23;;;2.03;;
11488;SDS011;5801;50.804;12.638;2023-11-19T12:02:55;4.50;;;1.67;;
11488;SDS011;5801;50.804;12.638;2023-11-19T12:05:25;2.97;;;1.52;;
11488;SDS011;5801;50.804;12.638;2023-11-19T12:08:02;4.57;;;1.45;;
11488;SDS011;5801;50.804;12.638;2023-11-19T12:10:31;4.15;;;1.10;;
11488;SDS011;5801;50.804;12.638;2023-11-19T12:13:18;4.13;;;1.27;;
11488;SDS011;5801;50.804;12.638;2023-11-19T12:18:22;5.18;;;1.45;;
11488;SDS011;5801;50.804;12.638;2023-11-19T12:20:49;6.55;;;1.98;;
11488;SDS011;5801;50.804;12.638;2023-11-19T12:23:15;8.15;;;1.60;;
11488;SDS011;5801;50.804;12.638;2023-11-19T12:25:41;1.10;;;1.00;;
11488;SDS011;5801;50.804;12.638;2023-11-19T12:28:12;3.90;;;1.15;;
11488;SDS011;5801;50.804;12.638;2023-11-19T12:30:42;3.35;;;1.27;;
11488;SDS011;5801;50.804;12.638;2023-11-19T12:33:09;3.40;;;1.55;;
11488;SDS011;5801;50.804;12.638;2023-11-19T12:35:41;10.75;;;1.88;;
11488;SDS011;5801;50.804;12.638;2023-11-19T12:38:17;3.78;;;1.83;;
11488;SDS011;5801;50.804;12.638;2023-11-19T12:41:07;8.35;;;1.70;;
11488;SDS011;5801;50.804;12.638;2023-11-19T12:43:36;9.65;;;1.50;;
11488;SDS011;5801;50.804;12.638;2023-11-19T12:46:24;8.02;;;2.05;;
11488;SDS011;5801;50.804;12.638;2023-11-19T12:48:50;5.03;;;1.80;;
11488;SDS011;5801;50.804;12.638;2023-11-19T12:51:16;7.80;;;1.70;;
11488;SDS011;5801;50.804;12.638;2023-11-19T12:53:49;2.88;;;1.42;;
11488;SDS011;5801;50.804;12.638;2023-11-19T12:56:23;7.32;;;1.65;;
11488;SDS011;5801;50.804;12.638;2023-11-19T12:58:50;2.35;;;1.38;;
11488;SDS011;5801;50.804;12.638;2023-11-19T13:01:19;7.88;;;1.67;;
11488;SDS011;5801;50.804;12.638;2023-11-19T13:03:45;5.88;;;1.55;;
11488;SDS011;5801;50.804;12.638;2023-11-19T13:06:14;7.93;;;1.80;;
11488;SDS011;5801;50.804;12.638;2023-11-19T13:08:46;8.93;;;1.80;;
11488;SDS011;5801;50.804;12.638;2023-11-19T13:11:35;5.88;;;2.10;;
11488;SDS011;5801;50.804;12.638;2023-11-19T13:14:05;6.65;;;1.50;;
11488;SDS011;5801;50.804;12.638;2023-11-19T13:16:33;2.80;;;1.30;;
11488;SDS011;5801;50.804;12.638;2023-11-19T13:19:01;6.97;;;2.08;;
11488;SDS011;5801;50.804;12.638;2023-11-19T13:21:27;10.18;;;3.17;;
11488;SDS011;5801;50.804;12.638;2023-11-19T13:23:55;4.68;;;1.80;;
11488;SDS011;5801;50.804;12.638;2023-11-19T13:26:21;8.20;;;1.13;;
11488;SDS011;5801;50.804;12.638;2023-11-19T13:28:47;12.40;;;1.80;;
11488;SDS011;5801;50.804;12.638;2023-11-19T13:31:14;9.00;;;1.63;;
11488;SDS011;5801;50.804;12.638;2023-11-19T13:33:40;1.70;;;1.00;;
11488;SDS011;5801;50.804;12.638;2023-11-19T13:36:06;9.20;;;2.95;;
11488;SDS011;5801;50.804;12.638;2023-11-19T13:38:34;4.53;;;1.35;;
11488;SDS011;5801;50.804;12.638;2023-11-19T13:41:01;6.70;;;1.30;;
11488;SDS011;5801;50.804;12.638;2023-11-19T13:43:27;3.17;;;1.10;;
11488;SDS011;5801;50.804;12.638;2023-11-19T13:45:54;10.75;;;1.70;;
11488;SDS011;5801;50.804;12.638;2023-11-19T13:48:20;5.97;;;1.45;;
11488;SDS011;5801;50.804;12.638;2023-11-19T13:50:46;5.15;;;1.67;;
11488;SDS011;5801;50.804;12.638;2023-11-19T13:53:12;3.22;;;1.73;;
11488;SDS011;5801;50.804;12.638;2023-11-19T13:55:38;6.57;;;1.67;;
11488;SDS011;5801;50.804;12.638;2023-11-19T13:58:04;9.13;;;1.40;;
11488;SDS011;5801;50.804;12.638;2023-11-19T14:00:30;9.13;;;1.60;;
11488;SDS011;5801;50.804;12.638;2023-11-19T14:02:56;5.43;;;1.40;;
11488;SDS011;5801;50.804;12.638;2023-11-19T14:05:22;6.32;;;1.83;;
11488;SDS011;5801;50.804;12.638;2023-11-19T14:07:48;7.72;;;1.80;;
11488;SDS011;5801;50.804;12.638;2023-11-19T14:10:16;6.90;;;1.63;;
11488;SDS011;5801;50.804;12.638;2023-11-19T14:12:42;3.28;;;1.10;;
11488;SDS011;5801;50.804;12.638;2023-11-19T14:15:09;3.17;;;1.67;;
11488;SDS011;5801;50.804;12.638;2023-11-19T14:17:37;6.13;;;1.83;;
11488;SDS011;5801;50.804;12.638;2023-11-19T14:20:04;3.13;;;1.48;;
11488;SDS011;5801;50.804;12.638;2023-11-19T14:22:40;7.07;;;1.27;;
11488;SDS011;5801;50.804;12.638;2023-11-19T14:25:07;4.10;;;1.33;;
11488;SDS011;5801;50.804;12.638;2023-11-19T14:27:38;7.78;;;1.52;;
11488;SDS011;5801;50.804;12.638;2023-11-19T14:30:06;4.50;;;1.48;;
11488;SDS011;5801;50.804;12.638;2023-11-19T14:32:36;5.60;;;1.48;;
11488;SDS011;5801;50.804;12.638;2023-11-19T14:35:02;5.68;;;1.55;;
11488;SDS011;5801;50.804;12.638;2023-11-19T14:37:29;10.35;;;2.17;;
11488;SDS011;5801;50.804;12.638;2023-11-19T14:39:57;5.18;;;1.40;;
11488;SDS011;5801;50.804;12.638;2023-11-19T14:42:27;6.13;;;1.85;;
11488;SDS011;5801;50.804;12.638;2023-11-19T14:44:53;7.82;;;1.92;;
11488;SDS011;5801;50.804;12.638;2023-11-19T14:47:20;9.25;;;1.52;;
11488;SDS011;5801;50.804;12.638;2023-11-19T14:49:46;5.57;;;1.45;;
11488;SDS011;5801;50.804;12.638;2023-11-19T14:52:12;5.45;;;1.42;;
11488;SDS011;5801;50.804;12.638;2023-11-19T14:54:39;4.47;;;1.52;;
11488;SDS011;5801;50.804;12.638;2023-11-19T14:57:05;7.00;;;1.80;;
11488;SDS011;5801;50.804;12.638;2023-11-19T14:59:33;7.50;;;1.65;;
11488;SDS011;5801;50.804;12.638;2023-11-19T15:01:59;7.10;;;1.95;;
11488;SDS011;5801;50.804;12.638;2023-11-19T15:04:26;6.47;;;2.35;;
11488;SDS011;5801;50.804;12.638;2023-11-19T15:06:52;4.22;;;1.70;;
11488;SDS011;5801;50.804;12.638;2023-11-19T15:09:18;4.85;;;1.98;;